Airfield :







YOU CAN JOIN US ON...

 
LOGIN :

Register | Disclaimer

   EN    FR    IT 

 









Legend :    VFR   Marginal VFR   IFR   Intensive IFR   Very Intensive IFR
Visi :
Ceiling :
>= 8 km
>= 3000ft
5 to 8 km
1000 to 3000 ft
1500m to 5 km
500 to 1000 ft
800 to 1500m
200 to 500 ft
< 800m
< 200 ft
Symbols :   Thunderstorms  Fog  Heavy snow  Heavy precipitations  Wind > 20 kt






- Airport Elevation : 203 ft
- IATA code : YQY


CYQY - Sydney

CURRENT METAR :
  • 101329Z 20013G20KT 1 1/2SM R06/3500VP6000FT/U -RA BR OVC003 05/04 A2893 RMK NS8 SLP801

EXPIRED METARs :
  • 101310Z 16017G24KT 3/4SM R06/5500VP6000FT/D -RA BR OVC002 04/04 A2892 RMK NS8 SLP797
  • 101300Z 15021G28KT 1 1/2SM R06/5500VP6000FT/N -RA BR OVC003 03/03 A2891 RMK NS8 PRESFR SLP795
  • 101229Z 12021G30KT 2SM R06/4500VP6000FT/U -RA BR OVC003 02/02 A2895 RMK NS8 SLP808
  • 101200Z 11020G31KT 3SM -RA BR OVC004 02/01 A2897 RMK NS8 PRESFR SLP812
  • 101130Z 10018G32KT 3SM -RA BR OVC004 01/01 A2903 RMK NS8 PRESFR SLP835
  • 101100Z 10021G35KT 1 1/2SM -RA OVC004 01/00 A2905 RMK NS8 SLP843

TAF AMD TAF CYQY
Valid from the 10 at 13:00 until the 11 at 00:00 UTC


101307Z 1013/1024 15020G30KT 1SM -DZ BR OVC003
TEMPO 1013/1015 6SM BR SCT003 OVC010
BECMG 1013/1015 22025G40KT
FM101500 22025G40KT P6SM BKN020
TEMPO 1015/1018 BKN030
FM101800 20025G45KT P6SM BKN030
TEMPO 1018/1022 BKN020
FM102200 20022G38KT P6SM -SHRA OVC020 RMK NXT FCST BY 101800Z



MET'MAP, your aeronautical weather chart ! - Copyright ORBIFLY December 2007 - Disclaimer

ORBIFLY MET'MAP TEAM :

Programming & Development : Alexandra Zaïnal
Concept & original design : Baudouin d'Aumeries
Assistance for programming : Marc-Olivier Méhu
Technical & hardware support : Manuel Goepfert

Contact : metmap@orbifly.com




SOURCES & CREDITS :

   NOAA